createdAt,value
2016-05-25T00:00:52.985Z,0
2016-05-25T00:01:52.925Z,0
2016-05-25T00:02:53.036Z,0
2016-05-25T00:03:53.055Z,0
2016-05-25T00:04:53.089Z,0
2016-05-25T00:05:52.952Z,0
2016-05-25T00:06:53.142Z,0
2016-05-25T00:07:53.144Z,0
2016-05-25T00:08:53.178Z,0
2016-05-25T00:09:52.885Z,0
2016-05-25T00:10:53.230Z,0
2016-05-25T00:11:53.093Z,0
2016-05-25T00:12:53.267Z,0
2016-05-25T00:13:53.301Z,0
2016-05-25T00:14:53.319Z,0
2016-05-25T00:15:53.337Z,0
2016-05-25T00:16:53.372Z,0
2016-05-25T00:17:53.390Z,0
2016-05-25T00:18:53.424Z,0
2016-05-25T00:19:53.286Z,0
2016-05-25T00:20:53.304Z,0
2016-05-25T00:21:53.323Z,0
2016-05-25T00:22:53.512Z,0
2016-05-25T00:23:53.547Z,0
2016-05-25T00:24:53.409Z,0
2016-05-25T00:25:53.584Z,0
2016-05-25T00:26:53.601Z,0
2016-05-25T00:27:53.620Z,0
2016-05-25T00:28:53.498Z,0
2016-05-25T00:29:53.673Z,0
2016-05-25T00:30:53.691Z,0
2016-05-25T00:31:53.584Z,0
2016-05-25T00:32:53.742Z,0
2016-05-25T00:33:53.777Z,0
2016-05-25T00:34:53.811Z,0
2016-05-25T00:35:53.829Z,0
2016-05-25T00:36:53.847Z,0
2016-05-25T00:37:53.865Z,0
2016-05-25T00:38:53.884Z,0
2016-05-25T00:39:53.919Z,0
2016-05-25T00:40:53.780Z,0
2016-05-25T00:41:53.971Z,0
2016-05-25T00:42:53.816Z,0
2016-05-25T00:43:54.007Z,0
2016-05-25T00:44:54.024Z,0
2016-05-25T00:45:54.074Z,0
2016-05-25T00:46:53.952Z,0
2016-05-25T00:47:54.127Z,0
2016-05-25T00:48:54.130Z,0
2016-05-25T00:49:54.148Z,0
2016-05-25T00:50:54.182Z,0
2016-05-25T00:51:54.200Z,0
2016-05-25T00:52:54.218Z,0
2016-05-25T00:53:54.284Z,0
2016-05-25T00:54:54.270Z,0
2016-05-25T00:55:54.305Z,0
2016-05-25T00:56:54.167Z,0
2016-05-25T00:57:54.341Z,0
2016-05-25T00:58:54.375Z,0
2016-05-25T00:59:54.394Z,0
2016-05-25T01:00:54.256Z,0
2016-05-25T01:01:54.445Z,0
2016-05-25T01:02:54.308Z,0
2016-05-25T01:03:54.498Z,0
2016-05-25T01:04:54.360Z,0
2016-05-25T01:05:54.535Z,0
2016-05-25T01:06:54.552Z,0
2016-05-25T01:07:54.586Z,0
2016-05-25T01:08:54.621Z,0
2016-05-25T01:09:54.467Z,0
2016-05-25T01:10:54.658Z,0
2016-05-25T01:11:54.519Z,0
2016-05-25T01:12:54.710Z,0
2016-05-25T01:13:54.727Z,0
2016-05-25T01:14:54.746Z,0
2016-05-25T01:15:54.780Z,0
2016-05-25T01:16:55.439Z,0
2016-05-25T01:17:54.817Z,0
2016-05-25T01:18:54.851Z,0
2016-05-25T01:19:54.869Z,0
2016-05-25T01:20:54.903Z,0
2016-05-25T01:21:54.921Z,0
2016-05-25T01:22:54.940Z,0
2016-05-25T01:23:54.958Z,0
2016-05-25T01:24:55.273Z,0
2016-05-25T01:25:55.042Z,0
2016-05-25T01:26:54.887Z,0
2016-05-25T01:27:55.063Z,0
2016-05-25T01:28:54.925Z,0
2016-05-25T01:29:54.990Z,0
2016-05-25T01:30:55.133Z,0
2016-05-25T01:31:55.323Z,0
2016-05-25T01:32:55.170Z,0
2016-05-25T01:33:55.203Z,0
2016-05-25T01:34:55.066Z,0
2016-05-25T01:35:55.256Z,0
2016-05-25T01:36:55.118Z,0
2016-05-25T01:37:55.167Z,0
2016-05-25T01:38:55.154Z,0
2016-05-25T01:39:55.344Z,0
2016-05-25T01:40:55.051Z,0
2016-05-25T01:41:55.397Z,0
2016-05-25T01:42:55.416Z,0
2016-05-25T01:43:55.449Z,0
2016-05-25T01:44:55.468Z,0
2016-05-25T01:45:55.330Z,0
2016-05-25T01:46:55.395Z,0
2016-05-25T01:47:55.554Z,0
2016-05-25T01:48:55.401Z,0
2016-05-25T01:49:55.279Z,0
2016-05-25T01:50:55.452Z,0
2016-05-25T01:51:55.470Z,0
2016-05-25T01:52:55.662Z,0
2016-05-25T01:53:55.523Z,0
2016-05-25T01:54:55.713Z,0
2016-05-25T01:55:55.731Z,0
2016-05-25T01:56:55.437Z,0
2016-05-25T01:57:55.768Z,0
2016-05-25T01:58:55.802Z,0
2016-05-25T01:59:55.820Z,0
2016-05-25T02:00:55.839Z,0
2016-05-25T02:01:56.264Z,0
2016-05-25T02:02:55.735Z,0
2016-05-25T02:03:55.909Z,0
2016-05-25T02:04:55.944Z,0
2016-05-25T02:05:55.977Z,0
2016-05-25T02:06:55.980Z,0
2016-05-25T02:07:56.014Z,0
2016-05-25T02:08:55.875Z,0
2016-05-25T02:09:56.066Z,0
2016-05-25T02:10:56.069Z,0
2016-05-25T02:11:56.103Z,0
2016-05-25T02:12:56.122Z,0
2016-05-25T02:13:56.155Z,0
2016-05-25T02:14:56.174Z,0
2016-05-25T02:15:56.051Z,0
2016-05-25T02:16:55.929Z,0
2016-05-25T02:17:56.103Z,0
2016-05-25T02:18:56.277Z,0
2016-05-25T02:19:56.140Z,0
2016-05-25T02:20:56.330Z,0
2016-05-25T02:21:56.348Z,0
2016-05-25T02:22:56.367Z,0
2016-05-25T02:23:56.385Z,0
2016-05-25T02:24:56.263Z,0
2016-05-25T02:25:56.296Z,0
2016-05-25T02:26:56.471Z,0
2016-05-25T02:27:56.473Z,0
2016-05-25T02:28:56.523Z,0
2016-05-25T02:29:56.541Z,0
2016-05-25T02:30:56.559Z,0
2016-05-25T02:31:56.469Z,0
2016-05-25T02:32:56.612Z,0
2016-05-25T02:33:56.631Z,0
2016-05-25T02:34:56.509Z,0
2016-05-25T02:35:56.667Z,0
2016-05-25T02:36:56.545Z,0
2016-05-25T02:37:56.563Z,0
2016-05-25T02:38:56.753Z,0
2016-05-25T02:39:56.615Z,0
2016-05-25T02:40:56.806Z,0
2016-05-25T02:41:56.668Z,0
2016-05-25T02:42:56.842Z,0
2016-05-25T02:43:56.861Z,0
2016-05-25T02:44:56.894Z,0
2016-05-25T02:45:56.913Z,0
2016-05-25T02:46:56.963Z,0
2016-05-25T02:47:56.793Z,0
2016-05-25T02:48:56.827Z,0
2016-05-25T02:49:57.001Z,0
2016-05-25T02:50:56.895Z,0
2016-05-25T02:51:56.914Z,0
2016-05-25T02:52:56.915Z,0
2016-05-25T02:53:56.951Z,0
2016-05-25T02:54:57.124Z,0
2016-05-25T02:55:57.002Z,0
2016-05-25T02:56:57.021Z,0
2016-05-25T02:57:57.070Z,0
2016-05-25T02:58:57.214Z,0
2016-05-25T02:59:57.247Z,0
2016-05-25T03:00:57.125Z,0
2016-05-25T03:01:57.175Z,0
2016-05-25T03:02:57.318Z,0
2016-05-25T03:03:57.352Z,0
2016-05-25T03:04:57.370Z,0
2016-05-25T03:05:57.419Z,0
2016-05-25T03:06:57.407Z,0
2016-05-25T03:07:57.456Z,0
2016-05-25T03:08:57.303Z,0
2016-05-25T03:09:57.477Z,4
2016-05-25T03:10:57.527Z,4
2016-05-25T03:11:57.373Z,0
2016-05-25T03:12:57.548Z,0
2016-05-25T03:13:57.566Z,4
2016-05-25T03:14:57.600Z,4
2016-05-25T03:15:57.462Z,4
2016-05-25T03:16:57.762Z,4
2016-05-25T03:17:57.671Z,4
2016-05-25T03:18:57.549Z,8
2016-05-25T03:19:57.707Z,8
2016-05-25T03:20:57.741Z,12
2016-05-25T03:21:57.760Z,12
2016-05-25T03:22:57.810Z,12
2016-05-25T03:23:57.812Z,12
2016-05-25T03:24:57.830Z,12
2016-05-25T03:25:57.708Z,16
2016-05-25T03:26:57.743Z,12
2016-05-25T03:27:57.901Z,16
2016-05-25T03:28:57.935Z,16
2016-05-25T03:29:57.797Z,20
2016-05-25T03:30:57.971Z,20
2016-05-25T03:31:58.318Z,20
2016-05-25T03:32:58.023Z,24
2016-05-25T03:33:58.058Z,24
2016-05-25T03:34:58.092Z,24
2016-05-25T03:35:58.094Z,28
2016-05-25T03:36:58.112Z,28
2016-05-25T03:37:57.975Z,32
2016-05-25T03:38:58.008Z,32
2016-05-25T03:39:58.183Z,32
2016-05-25T03:40:58.217Z,32
2016-05-25T03:41:58.235Z,36
2016-05-25T03:42:58.253Z,40
2016-05-25T03:43:58.288Z,40
2016-05-25T03:44:58.149Z,44
2016-05-25T03:45:58.324Z,52
2016-05-25T03:46:58.374Z,56
2016-05-25T03:47:58.377Z,68
2016-05-25T03:48:58.395Z,68
2016-05-25T03:49:58.413Z,72
2016-05-25T03:50:58.463Z,76
2016-05-25T03:51:58.324Z,84
2016-05-25T03:52:58.499Z,88
2016-05-25T03:53:58.518Z,100
2016-05-25T03:54:58.551Z,112
2016-05-25T03:55:58.571Z,124
2016-05-25T03:56:58.604Z,136
2016-05-25T03:57:58.607Z,148
2016-05-25T03:58:58.626Z,160
2016-05-25T03:59:58.660Z,176
2016-05-25T04:00:58.677Z,192
2016-05-25T04:01:58.929Z,208
2016-05-25T04:02:58.730Z,220
2016-05-25T04:03:58.748Z,236
2016-05-25T04:04:58.767Z,252
2016-05-25T04:05:58.660Z,268
2016-05-25T04:06:58.662Z,288
2016-05-25T04:07:58.852Z,304
2016-05-25T04:08:58.715Z,316
2016-05-25T04:09:58.748Z,328
2016-05-25T04:10:58.939Z,348
2016-05-25T04:11:58.941Z,368
2016-05-25T04:12:58.959Z,392
2016-05-25T04:13:58.994Z,420
2016-05-25T04:14:58.856Z,436
2016-05-25T04:15:59.046Z,436
2016-05-25T04:16:59.080Z,424
2016-05-25T04:17:59.082Z,388
2016-05-25T04:18:59.116Z,356
2016-05-25T04:19:59.158Z,312
2016-05-25T04:20:59.216Z,284
2016-05-25T04:21:59.242Z,268
2016-05-25T04:22:59.300Z,256
2016-05-25T04:23:59.342Z,264
2016-05-25T04:24:59.431Z,276
2016-05-25T04:25:59.412Z,296
2016-05-25T04:26:59.454Z,312
2016-05-25T04:27:59.465Z,324
2016-05-25T04:28:59.523Z,320
2016-05-25T04:29:59.529Z,312
2016-05-25T04:30:59.550Z,316
2016-05-25T04:32:00.697Z,328
2016-05-25T04:32:59.452Z,340
2016-05-25T04:33:59.630Z,356
2016-05-25T04:35:00.103Z,372
2016-05-25T04:35:59.699Z,388
2016-05-25T04:36:59.564Z,408
2016-05-25T04:37:59.582Z,424
2016-05-25T04:38:59.759Z,452
2016-05-25T04:39:59.794Z,492
2016-05-25T04:40:59.827Z,532
2016-05-25T04:41:59.831Z,568
2016-05-25T04:42:59.865Z,604
2016-05-25T04:43:59.883Z,644
2016-05-25T04:44:59.746Z,676
2016-05-25T04:45:59.920Z,688
2016-05-25T04:47:00.079Z,700
2016-05-25T04:47:59.660Z,704
2016-05-25T04:48:59.990Z,716
2016-05-25T04:50:00.025Z,728
2016-05-25T04:51:00.043Z,736
2016-05-25T04:52:00.061Z,740
2016-05-25T04:52:59.939Z,728
2016-05-25T04:53:59.957Z,716
2016-05-25T04:55:00.132Z,708
2016-05-25T04:56:00.166Z,712
2016-05-25T04:57:00.043Z,720
2016-05-25T04:58:00.218Z,732
2016-05-25T04:59:00.236Z,772
2016-05-25T05:00:00.099Z,828
2016-05-25T05:01:00.289Z,888
2016-05-25T05:02:00.338Z,940
2016-05-25T05:03:00.325Z,976
2016-05-25T05:04:00.203Z,976
2016-05-25T05:05:00.377Z,964
2016-05-25T05:06:00.396Z,960
2016-05-25T05:07:00.429Z,964
2016-05-25T05:08:00.463Z,972
2016-05-25T05:09:00.466Z,996
2016-05-25T05:10:00.500Z,1024
2016-05-25T05:11:00.518Z,1056
2016-05-25T05:12:00.537Z,1076
2016-05-25T05:13:00.399Z,1088
2016-05-25T05:14:00.589Z,1088
2016-05-25T05:15:00.623Z,1088
2016-05-25T05:16:00.642Z,1092
2016-05-25T05:17:00.770Z,1116
2016-05-25T05:18:00.522Z,1160
2016-05-25T05:19:00.712Z,1216
2016-05-25T05:20:00.730Z,1256
2016-05-25T05:21:00.749Z,1272
2016-05-25T05:22:00.783Z,1264
2016-05-25T05:23:00.801Z,1244
2016-05-25T05:24:00.819Z,1216
2016-05-25T05:25:00.853Z,1184
2016-05-25T05:26:00.872Z,1156
2016-05-25T05:27:00.890Z,1140
2016-05-25T05:28:00.924Z,1128
2016-05-25T05:29:00.942Z,1116
2016-05-25T05:30:00.804Z,1108
2016-05-25T05:31:00.994Z,1112
2016-05-25T05:32:01.013Z,1128
2016-05-25T05:33:00.875Z,1156
2016-05-25T05:34:01.065Z,1188
2016-05-25T05:35:01.083Z,1216
2016-05-25T05:36:01.133Z,1240
2016-05-25T05:37:01.136Z,1256
2016-05-25T05:38:01.169Z,1276
2016-05-25T05:39:01.188Z,1292
2016-05-25T05:40:01.221Z,1304
2016-05-25T05:41:01.240Z,1320
2016-05-25T05:42:01.258Z,1340
2016-05-25T05:43:01.276Z,1360
2016-05-25T05:44:01.310Z,1368
2016-05-25T05:45:01.187Z,1364
2016-05-25T05:46:03.769Z,1340
2016-05-25T05:47:01.240Z,1304
2016-05-25T05:48:01.399Z,1260
2016-05-25T05:49:01.434Z,1216
2016-05-25T05:50:01.451Z,1172
2016-05-25T05:51:03.720Z,1128
2016-05-25T05:52:01.504Z,1092
2016-05-25T05:53:01.537Z,1048
2016-05-25T05:54:04.572Z,1012
2016-05-25T05:55:01.589Z,992
2016-05-25T05:56:04.406Z,972
2016-05-25T05:57:01.627Z,960
2016-05-25T05:58:01.505Z,952
2016-05-25T05:59:01.679Z,944
2016-05-25T06:00:01.728Z,936
2016-05-25T06:01:03.809Z,928
2016-05-25T06:02:01.765Z,920
2016-05-25T06:03:01.627Z,916
2016-05-25T06:04:01.661Z,912
2016-05-25T06:05:01.835Z,908
2016-05-25T06:06:01.869Z,904
2016-05-25T06:07:01.732Z,900
2016-05-25T06:08:01.906Z,900
2016-05-25T06:09:01.972Z,896
2016-05-25T06:10:01.833Z,892
2016-05-25T06:11:02.024Z,900
2016-05-25T06:12:02.011Z,908
2016-05-25T06:13:02.045Z,916
2016-05-25T06:14:02.063Z,928
2016-05-25T06:15:02.096Z,952
2016-05-25T06:16:02.115Z,980
2016-05-25T06:17:03.009Z,1004
2016-05-25T06:18:03.198Z,1036
2016-05-25T06:19:02.187Z,1052
2016-05-25T06:20:02.220Z,1076
2016-05-25T06:21:02.237Z,1096
2016-05-25T06:22:02.273Z,1116
2016-05-25T06:23:02.290Z,1132
2016-05-25T06:24:02.184Z,1148
2016-05-25T06:25:02.187Z,1164
2016-05-25T06:26:02.392Z,1176
2016-05-25T06:27:02.411Z,1184
2016-05-25T06:28:03.788Z,1188
2016-05-25T06:29:02.291Z,1184
2016-05-25T06:30:02.480Z,1188
2016-05-25T06:31:02.514Z,1200
2016-05-25T06:32:03.033Z,1216
2016-05-25T06:33:02.411Z,1240
2016-05-25T06:34:02.586Z,1264
2016-05-25T06:35:02.605Z,1288
2016-05-25T06:36:02.466Z,1308
2016-05-25T06:37:02.500Z,1320
2016-05-25T06:38:02.519Z,1336
2016-05-25T06:39:02.568Z,1352
2016-05-25T06:40:02.743Z,1368
2016-05-25T06:41:02.745Z,1380
2016-05-25T06:42:02.780Z,1384
2016-05-25T06:43:03.516Z,1388
2016-05-25T06:44:02.675Z,1392
2016-05-25T06:45:02.849Z,1384
2016-05-25T06:46:02.884Z,1368
2016-05-25T06:47:02.917Z,1352
2016-05-25T06:48:02.951Z,1332
2016-05-25T06:49:02.970Z,1320
2016-05-25T06:50:02.987Z,1308
2016-05-25T06:51:03.023Z,1300
2016-05-25T06:52:02.931Z,1296
2016-05-25T06:53:03.073Z,1300
2016-05-25T06:54:03.109Z,1312
2016-05-25T06:55:03.126Z,1320
2016-05-25T06:56:03.176Z,1336
2016-05-25T06:57:03.164Z,1344
2016-05-25T06:58:03.197Z,1360
2016-05-25T06:59:03.075Z,1380
2016-05-25T07:00:03.264Z,1416
2016-05-25T07:01:03.299Z,1460
2016-05-25T07:02:03.317Z,1512
2016-05-25T07:03:04.695Z,1576
2016-05-25T07:04:03.353Z,1648
2016-05-25T07:05:03.419Z,1712
2016-05-25T07:06:03.406Z,1772
2016-05-25T07:07:03.268Z,1824
2016-05-25T07:08:03.458Z,1860
2016-05-25T07:09:03.492Z,1880
2016-05-25T07:10:03.494Z,1900
2016-05-25T07:11:03.529Z,1924
2016-05-25T07:12:03.563Z,1936
2016-05-25T07:13:03.596Z,1956
2016-05-25T07:14:03.615Z,1976
2016-05-25T07:15:03.493Z,1996
2016-05-25T07:16:03.651Z,2016
2016-05-25T07:17:03.888Z,2036
2016-05-25T07:18:05.860Z,2076
2016-05-25T07:19:03.738Z,2116
2016-05-25T07:20:03.600Z,2164
2016-05-25T07:21:03.790Z,2208
2016-05-25T07:22:03.809Z,2236
2016-05-25T07:23:04.374Z,2236
2016-05-25T07:24:03.876Z,2220
2016-05-25T07:25:03.739Z,2192
2016-05-25T07:26:03.912Z,2164
2016-05-25T07:27:03.822Z,2152
2016-05-25T07:28:03.981Z,2156
2016-05-25T07:29:03.999Z,2164
2016-05-25T07:30:04.017Z,2188
2016-05-25T07:31:04.051Z,2232
2016-05-25T07:32:04.398Z,2284
2016-05-25T07:33:04.103Z,2332
2016-05-25T07:34:03.809Z,2360
2016-05-25T07:35:04.141Z,2360
2016-05-25T07:36:04.018Z,2340
2016-05-25T07:37:04.209Z,2312
2016-05-25T07:38:04.086Z,2292
2016-05-25T07:39:03.948Z,2284
2016-05-25T07:40:04.138Z,2276
2016-05-25T07:41:04.313Z,2252
2016-05-25T07:42:04.174Z,2216
2016-05-25T07:43:04.208Z,2176
2016-05-25T07:44:04.227Z,2128
2016-05-25T07:45:04.418Z,2080
2016-05-25T07:46:04.435Z,2032
2016-05-25T07:47:04.469Z,1984
2016-05-25T07:48:04.988Z,1944
2016-05-25T07:49:04.506Z,1912
2016-05-25T07:50:04.541Z,1896
2016-05-25T07:51:04.418Z,1892
2016-05-25T07:52:04.452Z,1892
2016-05-25T07:53:04.642Z,1896
2016-05-25T07:54:04.332Z,1896
2016-05-25T07:55:04.538Z,1888
2016-05-25T07:56:04.713Z,1892
2016-05-25T07:57:04.731Z,1896
2016-05-25T07:58:12.983Z,1896
2016-05-25T07:59:04.627Z,1896
2016-05-25T08:00:04.801Z,1892
2016-05-25T08:01:04.678Z,1880
2016-05-25T08:02:04.713Z,1876
2016-05-25T08:03:05.403Z,1876
2016-05-25T08:04:04.922Z,1896
2016-05-25T08:05:04.800Z,1932
2016-05-25T08:06:04.974Z,1988
2016-05-25T08:07:04.992Z,2056
2016-05-25T08:08:04.745Z,2140
2016-05-25T08:09:05.028Z,2224
2016-05-25T08:10:04.953Z,2300
2016-05-25T08:11:05.081Z,2372
2016-05-25T08:12:05.116Z,2432
2016-05-25T08:13:04.993Z,2476
2016-05-25T08:14:05.182Z,2516
2016-05-25T08:15:05.044Z,2544
2016-05-25T08:16:05.219Z,2568
2016-05-25T08:17:05.300Z,2584
2016-05-25T08:18:06.616Z,2588
2016-05-25T08:19:05.134Z,2572
2016-05-25T08:20:05.324Z,2540
2016-05-25T08:21:05.358Z,2492
2016-05-25T08:22:05.220Z,2440
2016-05-25T08:23:05.785Z,2388
2016-05-25T08:24:05.429Z,2356
2016-05-25T08:25:05.446Z,2344
2016-05-25T08:26:05.324Z,2352
2016-05-25T08:27:05.358Z,2380
2016-05-25T08:28:05.236Z,2420
2016-05-25T08:29:05.395Z,2472
2016-05-25T08:30:05.585Z,2524
2016-05-25T08:31:05.603Z,2584
2016-05-25T08:32:05.887Z,2636
2016-05-25T08:33:05.672Z,2672
2016-05-25T08:34:05.534Z,2688
2016-05-25T08:35:05.567Z,2684
2016-05-25T08:36:05.773Z,2664
2016-05-25T08:37:05.760Z,2636
2016-05-25T08:38:05.967Z,2596
2016-05-25T08:39:05.828Z,2556
2016-05-25T08:40:05.691Z,2508
2016-05-25T08:41:05.880Z,2472
2016-05-25T08:42:05.742Z,2440
2016-05-25T08:43:06.402Z,2416
2016-05-25T08:44:05.966Z,2408
2016-05-25T08:45:05.985Z,2424
2016-05-25T08:46:05.847Z,2456
2016-05-25T08:47:05.880Z,2496
2016-05-25T08:48:06.071Z,2528
2016-05-25T08:49:06.074Z,2540
2016-05-25T08:50:05.951Z,2516
2016-05-25T08:51:06.173Z,2456
2016-05-25T08:52:06.160Z,2380
2016-05-25T08:53:07.929Z,2288
2016-05-25T08:54:06.196Z,2208
2016-05-25T08:55:06.090Z,2136
2016-05-25T08:56:06.249Z,2068
2016-05-25T08:57:06.329Z,1988
2016-05-25T08:58:06.332Z,1908
2016-05-25T08:59:06.195Z,1808
2016-05-25T09:00:06.385Z,1700
2016-05-25T09:01:06.231Z,1596
2016-05-25T09:02:07.500Z,1500
2016-05-25T09:03:06.299Z,1436
2016-05-25T09:04:06.473Z,1408
2016-05-25T09:05:06.335Z,1412
2016-05-25T09:06:06.370Z,1448
2016-05-25T09:07:06.559Z,1512
2016-05-25T09:08:06.578Z,1596
2016-05-25T09:09:06.597Z,1688
2016-05-25T09:10:06.489Z,1788
2016-05-25T09:11:06.649Z,1892
2016-05-25T09:12:06.527Z,2000
2016-05-25T09:13:06.717Z,2112
2016-05-25T09:14:06.578Z,2220
2016-05-25T09:15:06.753Z,2332
2016-05-25T09:16:06.788Z,2448
2016-05-25T09:17:07.009Z,2560
2016-05-25T09:18:07.620Z,2676
2016-05-25T09:19:06.717Z,2784
2016-05-25T09:20:06.751Z,2900
2016-05-25T09:21:06.754Z,2996
2016-05-25T09:22:06.944Z,3080
2016-05-25T09:23:06.978Z,3172
2016-05-25T09:24:06.996Z,3256
2016-05-25T09:25:07.030Z,3284
2016-05-25T09:26:06.892Z,3288
2016-05-25T09:27:07.067Z,3268
2016-05-25T09:28:07.537Z,3236
2016-05-25T09:29:07.118Z,3208
2016-05-25T09:30:07.153Z,3180
2016-05-25T09:31:07.031Z,3164
2016-05-25T09:32:06.768Z,3164
2016-05-25T09:33:07.067Z,3180
2016-05-25T09:34:07.101Z,3208
2016-05-25T09:35:07.135Z,3232
2016-05-25T09:36:07.309Z,3240
2016-05-25T09:37:07.344Z,3224
2016-05-25T09:38:07.377Z,3192
2016-05-25T09:39:07.381Z,3144
2016-05-25T09:40:07.414Z,3104
2016-05-25T09:41:07.447Z,3080
2016-05-25T09:42:07.451Z,3056
2016-05-25T09:43:10.282Z,3040
2016-05-25T09:44:07.363Z,3028
2016-05-25T09:45:07.536Z,3036
2016-05-25T09:46:07.586Z,3068
2016-05-25T09:47:07.761Z,3108
2016-05-25T09:48:10.124Z,3172
2016-05-25T09:49:07.501Z,3228
2016-05-25T09:50:07.675Z,3300
2016-05-25T09:51:07.725Z,3360
2016-05-25T09:52:07.555Z,3400
2016-05-25T09:53:09.855Z,3412
2016-05-25T09:54:07.780Z,3400
2016-05-25T09:55:07.813Z,3372
2016-05-25T09:56:07.848Z,3356
2016-05-25T09:57:07.850Z,3348
2016-05-25T09:58:07.885Z,3352
2016-05-25T09:59:07.918Z,3376
2016-05-25T10:00:07.920Z,3412
2016-05-25T10:01:07.970Z,3460
2016-05-25T10:02:07.848Z,3544
2016-05-25T10:03:08.007Z,3628
2016-05-25T10:04:07.900Z,3752
2016-05-25T10:05:08.059Z,3932
2016-05-25T10:06:08.093Z,4132
2016-05-25T10:07:07.955Z,4328
2016-05-25T10:08:08.177Z,4520
2016-05-25T10:09:08.164Z,4708
2016-05-25T10:10:08.229Z,4888
2016-05-25T10:11:08.216Z,5068
2016-05-25T10:12:08.250Z,5236
2016-05-25T10:13:08.300Z,5376
2016-05-25T10:14:08.302Z,5496
2016-05-25T10:15:08.336Z,5640
2016-05-25T10:16:08.355Z,5876
2016-05-25T10:17:08.342Z,5956
2016-05-25T10:18:08.439Z,5904
2016-05-25T10:19:08.425Z,5896
2016-05-25T10:20:10.740Z,5920
2016-05-25T10:21:08.337Z,5948
2016-05-25T10:22:08.511Z,5988
2016-05-25T10:23:08.546Z,6032
2016-05-25T10:24:08.563Z,6096
2016-05-25T10:25:09.474Z,6164
2016-05-25T10:26:09.101Z,6228
2016-05-25T10:27:08.493Z,6392
2016-05-25T10:28:08.528Z,6424
2016-05-25T10:29:08.702Z,6496
2016-05-25T10:30:08.736Z,6520
2016-05-25T10:31:11.520Z,6676
2016-05-25T10:32:09.820Z,6548
2016-05-25T10:33:08.807Z,6572
2016-05-25T10:34:08.856Z,6840
2016-05-25T10:35:08.859Z,6848
2016-05-25T10:36:09.159Z,6664
2016-05-25T10:37:08.911Z,6616
2016-05-25T10:38:08.804Z,6460
2016-05-25T10:39:08.979Z,6444
2016-05-25T10:40:08.997Z,6220
2016-05-25T10:41:09.328Z,6024
2016-05-25T10:42:08.894Z,5956
2016-05-25T10:43:09.068Z,5936
2016-05-25T10:44:08.945Z,5920
2016-05-25T10:45:09.119Z,5916
2016-05-25T10:46:09.154Z,5944
2016-05-25T10:47:09.047Z,5956
2016-05-25T10:48:09.050Z,6016
2016-05-25T10:49:09.069Z,5868
2016-05-25T10:50:09.274Z,5808
2016-05-25T10:51:09.293Z,5716
2016-05-25T10:52:09.171Z,5648
2016-05-25T10:53:09.345Z,5596
2016-05-25T10:54:09.238Z,5492
2016-05-25T10:55:09.241Z,5420
2016-05-25T10:56:09.416Z,5432
2016-05-25T10:57:09.465Z,5504
2016-05-25T10:58:09.468Z,5576
2016-05-25T10:59:09.345Z,5620
2016-05-25T11:00:09.535Z,5664
2016-05-25T11:01:09.398Z,5656
2016-05-25T11:02:12.400Z,5608
2016-05-25T11:03:10.326Z,5560
2016-05-25T11:04:09.640Z,5500
2016-05-25T11:05:09.659Z,5416
2016-05-25T11:06:09.709Z,5340
2016-05-25T11:07:09.726Z,5324
2016-05-25T11:08:09.589Z,5384
2016-05-25T11:09:09.778Z,5436
2016-05-25T11:10:09.812Z,5460
2016-05-25T11:11:09.675Z,5484
2016-05-25T11:12:10.943Z,5484
2016-05-25T11:13:09.883Z,5472
2016-05-25T11:14:09.900Z,5468
2016-05-25T11:15:09.935Z,5432
2016-05-25T11:16:09.813Z,5432
2016-05-25T11:17:11.894Z,5380
2016-05-25T11:18:10.022Z,5304
2016-05-25T11:19:10.056Z,5208
2016-05-25T11:20:09.917Z,5168
2016-05-25T11:21:10.107Z,5124
2016-05-25T11:22:10.267Z,5076
2016-05-25T11:23:10.019Z,5032
2016-05-25T11:24:10.194Z,4996
2016-05-25T11:25:10.055Z,4956
2016-05-25T11:26:10.263Z,4916
2016-05-25T11:27:10.296Z,4892
2016-05-25T11:28:10.313Z,4932
2016-05-25T11:29:10.176Z,5008
2016-05-25T11:30:10.335Z,5104
2016-05-25T11:31:10.368Z,5232
2016-05-25T11:32:15.184Z,5364
2016-05-25T11:33:10.140Z,5416
2016-05-25T11:34:10.299Z,5404
2016-05-25T11:35:10.490Z,5344
2016-05-25T11:36:10.507Z,5292
2016-05-25T11:37:10.666Z,5284
2016-05-25T11:38:10.560Z,5284
2016-05-25T11:39:10.281Z,5336
2016-05-25T11:40:10.628Z,5348
2016-05-25T11:41:10.631Z,5316
2016-05-25T11:42:10.711Z,5296
2016-05-25T11:43:10.698Z,5296
2016-05-25T11:44:10.731Z,5268
2016-05-25T11:45:10.594Z,5248
2016-05-25T11:46:10.784Z,5180
2016-05-25T11:47:11.147Z,5024
2016-05-25T11:48:11.806Z,4888
2016-05-25T11:49:10.870Z,4740
2016-05-25T11:50:10.889Z,4580
2016-05-25T11:51:10.922Z,4436
2016-05-25T11:52:10.941Z,4312
2016-05-25T11:53:10.991Z,4156
2016-05-25T11:54:11.008Z,4020
2016-05-25T11:55:11.027Z,3988
2016-05-25T11:56:10.936Z,3920
2016-05-25T11:57:11.079Z,3784
2016-05-25T11:58:10.957Z,3704
2016-05-25T11:59:11.179Z,3656
2016-05-25T12:00:11.197Z,3568
2016-05-25T12:01:11.043Z,3536
2016-05-25T12:02:11.077Z,3504
2016-05-25T12:03:11.174Z,3436
2016-05-25T12:04:11.115Z,3340
2016-05-25T12:05:10.992Z,3228
2016-05-25T12:06:11.181Z,3128
2016-05-25T12:07:11.372Z,3092
2016-05-25T12:08:11.390Z,3112
2016-05-25T12:09:11.253Z,2996
2016-05-25T12:10:11.302Z,3108
2016-05-25T12:11:11.492Z,3500
2016-05-25T12:12:11.510Z,3056
2016-05-25T12:13:11.373Z,2952
2016-05-25T12:14:11.422Z,2724
2016-05-25T12:15:11.597Z,2492
2016-05-25T12:16:11.599Z,2544
2016-05-25T12:17:14.242Z,2496
2016-05-25T12:18:11.511Z,2472
2016-05-25T12:19:11.514Z,2592
2016-05-25T12:20:11.704Z,2936
2016-05-25T12:21:11.753Z,3232
2016-05-25T12:22:15.928Z,3140
2016-05-25T12:23:11.666Z,3004
2016-05-25T12:24:11.652Z,2916
2016-05-25T12:25:11.842Z,2820
2016-05-25T12:26:11.860Z,2748
2016-05-25T12:27:14.535Z,2704
2016-05-25T12:28:11.772Z,2660
2016-05-25T12:29:11.947Z,2608
2016-05-25T12:30:11.980Z,2584
2016-05-25T12:31:11.999Z,2556
2016-05-25T12:32:12.048Z,2484
2016-05-25T12:33:12.067Z,2388
2016-05-25T12:34:12.101Z,2356
2016-05-25T12:35:11.963Z,2384
2016-05-25T12:36:12.153Z,2392
2016-05-25T12:37:13.187Z,2388
2016-05-25T12:38:12.206Z,2392
2016-05-25T12:39:12.224Z,2372
2016-05-25T12:40:12.257Z,2388
2016-05-25T12:41:12.120Z,2408
2016-05-25T12:42:13.262Z,2424
2016-05-25T12:43:12.344Z,2460
2016-05-25T12:44:12.362Z,2512
2016-05-25T12:45:12.396Z,2568
2016-05-25T12:46:12.258Z,2608
2016-05-25T12:47:15.276Z,2676
2016-05-25T12:48:12.186Z,2672
2016-05-25T12:49:12.189Z,2680
2016-05-25T12:50:12.364Z,2684
2016-05-25T12:51:12.411Z,2696
2016-05-25T12:52:14.133Z,2740
2016-05-25T12:53:12.605Z,2804
2016-05-25T12:54:12.624Z,2836
2016-05-25T12:55:12.658Z,2876
2016-05-25T12:56:12.535Z,2892
2016-05-25T12:57:14.318Z,2928
2016-05-25T12:58:12.588Z,3076
2016-05-25T12:59:12.777Z,3208
2016-05-25T13:00:12.640Z,3288
2016-05-25T13:01:12.829Z,3332
2016-05-25T13:02:15.052Z,3408
2016-05-25T13:03:16.694Z,3512
2016-05-25T13:04:12.900Z,3580
2016-05-25T13:05:12.622Z,3652
2016-05-25T13:06:12.952Z,3544
2016-05-25T13:07:13.018Z,3416
2016-05-25T13:08:14.270Z,3256
2016-05-25T13:09:12.882Z,3152
2016-05-25T13:10:12.916Z,3056
2016-05-25T13:11:12.935Z,2960
2016-05-25T13:12:13.000Z,2612
2016-05-25T13:13:13.159Z,2776
2016-05-25T13:14:13.178Z,2708
2016-05-25T13:15:13.195Z,2776
2016-05-25T13:16:13.104Z,2696
2016-05-25T13:17:16.045Z,2704
2016-05-25T13:18:13.828Z,3168
2016-05-25T13:19:13.331Z,3276
2016-05-25T13:20:16.350Z,3172
2016-05-25T13:21:13.400Z,3252
2016-05-25T13:22:17.292Z,3192
2016-05-25T13:23:13.420Z,2836
2016-05-25T13:24:13.454Z,2792
2016-05-25T13:25:13.181Z,2820
2016-05-25T13:26:13.535Z,2792
2016-05-25T13:27:16.202Z,2772
2016-05-25T13:28:13.323Z,2940
2016-05-25T13:29:13.520Z,2936
2016-05-25T13:30:13.730Z,3296
2016-05-25T13:31:13.772Z,3320
2016-05-25T13:32:16.143Z,3844
2016-05-25T13:33:15.029Z,3884
2016-05-25T13:34:13.916Z,3948
2016-05-25T13:35:14.112Z,3600
2016-05-25T13:36:13.931Z,3592
2016-05-25T13:37:17.170Z,3664
2016-05-25T13:38:13.989Z,3656
2016-05-25T13:39:14.120Z,3756
2016-05-25T13:40:14.063Z,3884
2016-05-25T13:41:14.114Z,4016
2016-05-25T13:42:15.976Z,3936
2016-05-25T13:43:14.153Z,3948
2016-05-25T13:44:14.172Z,3956